Terminal Aerodrome Forecast
Issued by NWS

Home | Current Version | Previous Version | Text Only | Print | Product List | Glossary On
Versions: 1 2 3 4 5 6 7 8 9 10 11 12 13 14 15 16 17 18
000
FTUS43 KGRR 080541
TAFAZO
TAF
KAZO 080541Z 0806/0906 26013G21KT P6SM OVC020
     FM081200 27015G23KT 6SM -SHSN BR OVC015
     FM081500 27015G24KT 3SM -SHSN BLSN BR OVC015
     FM090300 29010KT 1SM -SHSN BR OVC015=

USA.gov is the U.S. government's official web portal to all federal, state and local government web resources and services.